ドーハ の空港の天気 - METARとTAF

ドーハ国際空港 ( OTBD / DOH ) - カタール ドーハ
飛行場実況気象(Metar)
観測時間04/25 19:00 +03 (04/25 16:00 UTC)
風向・風速北 5m/s
視程10km以上
天気現象
なし
気温29℃
湿度35%
気圧1008hPa
METAROTBD 251600Z 01010KT CAVOK 29/12 Q1008 NOSIG
過去の天気等 Google飛行場航空写真 Wunderground天気予報

過去48時間のMETAR

飛行場予報(TAF)
発表時間: 4/25 08:03 +03 (4/25 05:03 UTC)
予報対象時間: 25日9時 +03 ~ 26日15時 +03
風向・風速東 3m/s
視程10km以上
なし
25日23時 +03 ~ 26日1時 +03 に徐々に
風向・風速北北西 4m/s
TAF OTBD 250503Z 2506/2612 09006KT CAVOK
BECMG 2520/2522 33007KT